Kansas City, Missouri
Traffic Map
Current Weather Conditions
Kansas City, Missouri
Clear
Clear
64°
Feels Like: 64°
Wind Chill: 64° Ceiling: Unl
Heat Index: 64° Visibility: 10mi
Dew Point: 32° Wind: 6mph
Humidity: 30% Direction: 50° (NE)
Pressure: 30.33in Gusts: 0mph
Raw Report DataKMKC 231854Z 05005KT 10SM CLR 18/00 A3033 RMK AO2 SLP268 T01780000
Traffic Incident Summary
Active as of:
Severity:
Category:
InformationThere was an issue retrieving the traffic information for this location. Please try a different location or try again shortly.
Advertisements